sensor_id;sensor_type;location;lat;lon;timestamp;pressure;altitude;pressure_sealevel;temperature;humidity
69772;BME280;57046;45.988;18.664;2023-12-20T00:02:18;100799.34;;;3.43;91.10
69772;BME280;57046;45.988;18.664;2023-12-20T00:04:43;100800.66;;;3.46;91.81
69772;BME280;57046;45.988;18.664;2023-12-20T00:07:08;100803.31;;;3.41;92.17
69772;BME280;57046;45.988;18.664;2023-12-20T00:09:33;100793.44;;;3.36;91.99
69772;BME280;57046;45.988;18.664;2023-12-20T00:11:59;100789.41;;;3.29;93.56
69772;BME280;57046;45.988;18.664;2023-12-20T00:14:24;100787.28;;;3.36;92.74
69772;BME280;57046;45.988;18.664;2023-12-20T00:16:49;100792.91;;;3.39;92.58
69772;BME280;57046;45.988;18.664;2023-12-20T00:19:15;100794.53;;;3.45;92.76
69772;BME280;57046;45.988;18.664;2023-12-20T00:21:40;100793.47;;;3.51;92.82
69772;BME280;57046;45.988;18.664;2023-12-20T00:24:07;100787.06;;;3.52;92.88
69772;BME280;57046;45.988;18.664;2023-12-20T00:26:32;100777.44;;;3.46;93.00
69772;BME280;57046;45.988;18.664;2023-12-20T00:28:57;100773.13;;;3.40;92.40
69772;BME280;57046;45.988;18.664;2023-12-20T00:31:23;100778.50;;;3.45;92.77
69772;BME280;57046;45.988;18.664;2023-12-20T00:33:48;100775.56;;;3.42;92.79
69772;BME280;57046;45.988;18.664;2023-12-20T00:36:13;100769.97;;;3.43;92.43
69772;BME280;57046;45.988;18.664;2023-12-20T00:38:38;100767.81;;;3.45;92.48
69772;BME280;57046;45.988;18.664;2023-12-20T00:41:04;100757.66;;;3.47;91.86
69772;BME280;57046;45.988;18.664;2023-12-20T00:43:29;100754.44;;;3.50;92.16
69772;BME280;57046;45.988;18.664;2023-12-20T00:45:54;100746.72;;;3.54;92.37
69772;BME280;57046;45.988;18.664;2023-12-20T00:48:20;100745.38;;;3.51;91.93
69772;BME280;57046;45.988;18.664;2023-12-20T00:50:45;100746.72;;;3.49;91.84
69772;BME280;57046;45.988;18.664;2023-12-20T00:53:10;100752.31;;;3.42;91.13
69772;BME280;57046;45.988;18.664;2023-12-20T00:55:36;100750.97;;;3.30;90.61
69772;BME280;57046;45.988;18.664;2023-12-20T00:58:01;100746.66;;;3.24;90.28
69772;BME280;57046;45.988;18.664;2023-12-20T01:00:26;100733.59;;;3.22;90.33
69772;BME280;57046;45.988;18.664;2023-12-20T01:02:51;100724.75;;;3.12;89.77
69772;BME280;57046;45.988;18.664;2023-12-20T01:05:20;100728.22;;;3.07;90.36
69772;BME280;57046;45.988;18.664;2023-12-20T01:07:45;100727.38;;;2.96;90.40
69772;BME280;57046;45.988;18.664;2023-12-20T01:10:10;100724.72;;;2.91;90.52
69772;BME280;57046;45.988;18.664;2023-12-20T01:12:36;100724.44;;;2.93;90.40
69772;BME280;57046;45.988;18.664;2023-12-20T01:15:01;100724.41;;;2.83;90.31
69772;BME280;57046;45.988;18.664;2023-12-20T01:17:27;100708.63;;;2.71;91.16
69772;BME280;57046;45.988;18.664;2023-12-20T01:19:52;100715.06;;;2.75;91.61
69772;BME280;57046;45.988;18.664;2023-12-20T01:22:17;100711.06;;;2.78;91.61
69772;BME280;57046;45.988;18.664;2023-12-20T01:24:43;100705.19;;;2.86;91.26
69772;BME280;57046;45.988;18.664;2023-12-20T01:27:08;100705.72;;;2.83;91.07
69772;BME280;57046;45.988;18.664;2023-12-20T01:29:33;100709.19;;;2.78;91.26
69772;BME280;57046;45.988;18.664;2023-12-20T01:31:58;100709.97;;;2.74;91.36
69772;BME280;57046;45.988;18.664;2023-12-20T01:34:24;100700.63;;;2.76;91.01
69772;BME280;57046;45.988;18.664;2023-12-20T01:36:49;100694.25;;;2.77;90.47
69772;BME280;57046;45.988;18.664;2023-12-20T01:39:14;100682.78;;;2.82;90.69
69772;BME280;57046;45.988;18.664;2023-12-20T01:41:40;100671.81;;;2.73;90.95
69772;BME280;57046;45.988;18.664;2023-12-20T01:44:05;100675.31;;;2.79;90.91
69772;BME280;57046;45.988;18.664;2023-12-20T01:46:30;100676.06;;;2.64;90.68
69772;BME280;57046;45.988;18.664;2023-12-20T01:48:56;100665.06;;;2.50;91.60
69772;BME280;57046;45.988;18.664;2023-12-20T01:51:22;100666.72;;;2.62;91.65
69772;BME280;57046;45.988;18.664;2023-12-20T01:53:48;100665.41;;;2.64;91.60
69772;BME280;57046;45.988;18.664;2023-12-20T01:56:14;100664.63;;;2.74;91.40
69772;BME280;57046;45.988;18.664;2023-12-20T01:58:44;100653.13;;;2.58;91.56
69772;BME280;57046;45.988;18.664;2023-12-20T02:01:10;100654.69;;;2.59;91.53
69772;BME280;57046;45.988;18.664;2023-12-20T02:03:35;100643.50;;;2.57;91.81
69772;BME280;57046;45.988;18.664;2023-12-20T02:06:01;100647.78;;;2.58;92.19
69772;BME280;57046;45.988;18.664;2023-12-20T02:08:26;100644.00;;;2.49;91.91
69772;BME280;57046;45.988;18.664;2023-12-20T02:10:51;100635.97;;;2.39;91.92
69772;BME280;57046;45.988;18.664;2023-12-20T02:13:17;100633.81;;;2.31;92.79
69772;BME280;57046;45.988;18.664;2023-12-20T02:15:42;100634.31;;;2.23;93.27
69772;BME280;57046;45.988;18.664;2023-12-20T02:18:07;100635.63;;;2.25;93.83
69772;BME280;57046;45.988;18.664;2023-12-20T02:20:33;100629.00;;;2.33;93.64
69772;BME280;57046;45.988;18.664;2023-12-20T02:22:58;100632.03;;;1.94;94.39
69772;BME280;57046;45.988;18.664;2023-12-20T02:25:23;100623.84;;;1.64;95.39
69772;BME280;57046;45.988;18.664;2023-12-20T02:27:49;100622.56;;;1.67;96.31
69772;BME280;57046;45.988;18.664;2023-12-20T02:30:15;100616.38;;;1.56;96.62
69772;BME280;57046;45.988;18.664;2023-12-20T02:32:40;100615.25;;;1.52;97.21
69772;BME280;57046;45.988;18.664;2023-12-20T02:35:05;100606.28;;;1.63;97.38
69772;BME280;57046;45.988;18.664;2023-12-20T02:37:32;100596.31;;;1.90;96.02
69772;BME280;57046;45.988;18.664;2023-12-20T02:39:58;100593.19;;;2.09;95.63
69772;BME280;57046;45.988;18.664;2023-12-20T02:42:23;100593.22;;;2.19;95.41
69772;BME280;57046;45.988;18.664;2023-12-20T02:44:48;100587.69;;;2.35;94.89
69772;BME280;57046;45.988;18.664;2023-12-20T02:47:13;100584.00;;;2.46;94.58
69772;BME280;57046;45.988;18.664;2023-12-20T02:49:39;100584.50;;;2.38;93.94
69772;BME280;57046;45.988;18.664;2023-12-20T02:52:04;100582.66;;;2.49;94.30
69772;BME280;57046;45.988;18.664;2023-12-20T02:54:30;100577.81;;;2.36;93.87
69772;BME280;57046;45.988;18.664;2023-12-20T02:56:55;100575.56;;;1.97;95.22
69772;BME280;57046;45.988;18.664;2023-12-20T02:59:20;100575.22;;;1.84;96.18
69772;BME280;57046;45.988;18.664;2023-12-20T03:01:46;100570.97;;;1.83;96.28
69772;BME280;57046;45.988;18.664;2023-12-20T03:04:12;100570.94;;;1.78;96.72
69772;BME280;57046;45.988;18.664;2023-12-20T03:06:37;100575.03;;;1.95;96.49
69772;BME280;57046;45.988;18.664;2023-12-20T03:09:03;100565.06;;;1.76;97.15
69772;BME280;57046;45.988;18.664;2023-12-20T03:11:28;100561.66;;;1.85;97.19
69772;BME280;57046;45.988;18.664;2023-12-20T03:13:54;100570.19;;;1.87;96.81
69772;BME280;57046;45.988;18.664;2023-12-20T03:16:20;100561.66;;;1.85;97.35
69772;BME280;57046;45.988;18.664;2023-12-20T03:18:45;100562.50;;;1.96;97.15
69772;BME280;57046;45.988;18.664;2023-12-20T03:21:10;100545.78;;;2.11;96.61
69772;BME280;57046;45.988;18.664;2023-12-20T03:23:36;100552.19;;;2.20;95.94
69772;BME280;57046;45.988;18.664;2023-12-20T03:26:01;100536.75;;;2.27;95.43
69772;BME280;57046;45.988;18.664;2023-12-20T03:28:27;100531.97;;;2.34;95.38
69772;BME280;57046;45.988;18.664;2023-12-20T03:30:52;100544.78;;;2.37;94.61
69772;BME280;57046;45.988;18.664;2023-12-20T03:33:18;100538.91;;;2.30;94.48
69772;BME280;57046;45.988;18.664;2023-12-20T03:35:43;100543.16;;;2.31;94.85
69772;BME280;57046;45.988;18.664;2023-12-20T03:38:08;100541.84;;;2.38;94.26
69772;BME280;57046;45.988;18.664;2023-12-20T03:40:34;100543.72;;;2.38;94.51
69772;BME280;57046;45.988;18.664;2023-12-20T03:42:59;100529.84;;;2.36;94.66
69772;BME280;57046;45.988;18.664;2023-12-20T03:45:24;100530.41;;;2.38;94.43
69772;BME280;57046;45.988;18.664;2023-12-20T03:47:50;100527.72;;;2.38;94.25
69772;BME280;57046;45.988;18.664;2023-12-20T03:50:15;100525.56;;;2.30;94.31
69772;BME280;57046;45.988;18.664;2023-12-20T03:52:41;100518.91;;;2.32;93.92
69772;BME280;57046;45.988;18.664;2023-12-20T03:55:06;100508.78;;;2.39;93.90
69772;BME280;57046;45.988;18.664;2023-12-20T03:57:31;100512.00;;;2.41;93.51
69772;BME280;57046;45.988;18.664;2023-12-20T03:59:57;100522.41;;;2.38;93.66
69772;BME280;57046;45.988;18.664;2023-12-20T04:02:22;100520.78;;;2.37;93.55
69772;BME280;57046;45.988;18.664;2023-12-20T04:04:47;100515.41;;;2.17;94.10
69772;BME280;57046;45.988;18.664;2023-12-20T04:07:13;100511.16;;;2.26;94.49
69772;BME280;57046;45.988;18.664;2023-12-20T04:09:38;100513.81;;;2.11;94.77
69772;BME280;57046;45.988;18.664;2023-12-20T04:12:03;100507.13;;;2.03;94.84
69772;BME280;57046;45.988;18.664;2023-12-20T04:14:29;100511.63;;;2.08;95.15
69772;BME280;57046;45.988;18.664;2023-12-20T04:16:54;100503.69;;;2.18;94.71
69772;BME280;57046;45.988;18.664;2023-12-20T04:19:19;100500.50;;;2.21;94.63
69772;BME280;57046;45.988;18.664;2023-12-20T04:21:45;100489.31;;;2.24;94.60
69772;BME280;57046;45.988;18.664;2023-12-20T04:24:10;100494.63;;;2.24;94.48
69772;BME280;57046;45.988;18.664;2023-12-20T04:26:35;100494.34;;;2.25;94.60
69772;BME280;57046;45.988;18.664;2023-12-20T04:29:01;100496.25;;;2.35;94.22
69772;BME280;57046;45.988;18.664;2023-12-20T04:31:26;100499.41;;;2.12;94.58
69772;BME280;57046;45.988;18.664;2023-12-20T04:33:51;100486.63;;;2.14;94.74
69772;BME280;57046;45.988;18.664;2023-12-20T04:36:17;100494.84;;;1.97;95.12
69772;BME280;57046;45.988;18.664;2023-12-20T04:38:42;100488.41;;;1.83;95.42
69772;BME280;57046;45.988;18.664;2023-12-20T04:41:07;100484.84;;;1.67;96.04
69772;BME280;57046;45.988;18.664;2023-12-20T04:43:33;100488.16;;;1.89;95.79
69772;BME280;57046;45.988;18.664;2023-12-20T04:45:58;100477.78;;;2.08;95.42
69772;BME280;57046;45.988;18.664;2023-12-20T04:48:23;100483.13;;;2.03;94.86
69772;BME280;57046;45.988;18.664;2023-12-20T04:50:48;100477.75;;;1.88;95.50
69772;BME280;57046;45.988;18.664;2023-12-20T04:53:14;100473.75;;;1.85;95.82
69772;BME280;57046;45.988;18.664;2023-12-20T04:55:39;100469.50;;;1.89;95.75
69772;BME280;57046;45.988;18.664;2023-12-20T04:58:04;100470.56;;;1.83;96.14
69772;BME280;57046;45.988;18.664;2023-12-20T05:00:30;100470.56;;;1.88;96.26
69772;BME280;57046;45.988;18.664;2023-12-20T05:02:55;100465.47;;;1.82;95.81
69772;BME280;57046;45.988;18.664;2023-12-20T05:05:20;100469.44;;;1.74;96.32
69772;BME280;57046;45.988;18.664;2023-12-20T05:07:46;100476.31;;;1.55;97.30
69772;BME280;57046;45.988;18.664;2023-12-20T05:10:11;100473.09;;;1.53;97.71
69772;BME280;57046;45.988;18.664;2023-12-20T05:12:36;100473.44;;;1.72;97.21
69772;BME280;57046;45.988;18.664;2023-12-20T05:15:02;100469.47;;;1.79;97.23
69772;BME280;57046;45.988;18.664;2023-12-20T05:17:27;100476.44;;;1.95;96.62
69772;BME280;57046;45.988;18.664;2023-12-20T05:19:52;100476.19;;;1.97;96.74
69772;BME280;57046;45.988;18.664;2023-12-20T05:22:19;100470.59;;;1.98;96.66
69772;BME280;57046;45.988;18.664;2023-12-20T05:24:44;100462.63;;;2.14;96.25
69772;BME280;57046;45.988;18.664;2023-12-20T05:27:09;100458.63;;;2.11;96.23
69772;BME280;57046;45.988;18.664;2023-12-20T05:29:35;100458.88;;;2.04;95.97
69772;BME280;57046;45.988;18.664;2023-12-20T05:32:00;100447.69;;;2.08;95.85
69772;BME280;57046;45.988;18.664;2023-12-20T05:34:25;100457.03;;;2.10;96.14
69772;BME280;57046;45.988;18.664;2023-12-20T05:36:50;100452.25;;;2.22;95.57
69772;BME280;57046;45.988;18.664;2023-12-20T05:39:16;100452.81;;;2.34;95.60
69772;BME280;57046;45.988;18.664;2023-12-20T05:41:41;100456.00;;;2.46;95.55
69772;BME280;57046;45.988;18.664;2023-12-20T05:44:06;100455.47;;;2.49;94.76
69772;BME280;57046;45.988;18.664;2023-12-20T05:46:32;100464.03;;;2.51;93.84
69772;BME280;57046;45.988;18.664;2023-12-20T05:48:57;100453.09;;;2.38;94.26
69772;BME280;57046;45.988;18.664;2023-12-20T05:51:22;100453.88;;;2.33;94.32
69772;BME280;57046;45.988;18.664;2023-12-20T05:53:48;100450.13;;;2.29;93.93
69772;BME280;57046;45.988;18.664;2023-12-20T05:56:13;100460.53;;;2.31;94.12
69772;BME280;57046;45.988;18.664;2023-12-20T05:58:38;100468.22;;;2.07;94.68
69772;BME280;57046;45.988;18.664;2023-12-20T06:01:04;100465.00;;;2.00;95.36
69772;BME280;57046;45.988;18.664;2023-12-20T06:03:30;100474.09;;;2.14;95.66
69772;BME280;57046;45.988;18.664;2023-12-20T06:05:55;100479.44;;;2.19;94.63
69772;BME280;57046;45.988;18.664;2023-12-20T06:08:21;100471.72;;;2.23;94.78
69772;BME280;57046;45.988;18.664;2023-12-20T06:10:46;100480.50;;;2.13;95.26
69772;BME280;57046;45.988;18.664;2023-12-20T06:13:11;100480.47;;;2.18;94.77
69772;BME280;57046;45.988;18.664;2023-12-20T06:15:37;100488.22;;;2.25;94.81
69772;BME280;57046;45.988;18.664;2023-12-20T06:18:02;100491.94;;;2.09;95.32
69772;BME280;57046;45.988;18.664;2023-12-20T06:20:27;100496.34;;;1.78;96.02
69772;BME280;57046;45.988;18.664;2023-12-20T06:22:53;100492.28;;;1.55;97.12
69772;BME280;57046;45.988;18.664;2023-12-20T06:25:18;100486.16;;;1.54;97.84
69772;BME280;57046;45.988;18.664;2023-12-20T06:27:43;100496.59;;;1.66;97.10
69772;BME280;57046;45.988;18.664;2023-12-20T06:30:09;100493.44;;;1.84;96.63
69772;BME280;57046;45.988;18.664;2023-12-20T06:32:35;100500.41;;;1.90;96.43
69772;BME280;57046;45.988;18.664;2023-12-20T06:35:00;100492.72;;;1.99;96.01
69772;BME280;57046;45.988;18.664;2023-12-20T06:37:25;100495.31;;;1.84;96.26
69772;BME280;57046;45.988;18.664;2023-12-20T06:39:51;100502.25;;;1.80;96.78
69772;BME280;57046;45.988;18.664;2023-12-20T06:42:16;100503.44;;;1.57;97.86
69772;BME280;57046;45.988;18.664;2023-12-20T06:44:41;100507.00;;;1.78;97.33
69772;BME280;57046;45.988;18.664;2023-12-20T06:47:07;100494.81;;;1.92;97.14
69772;BME280;57046;45.988;18.664;2023-12-20T06:49:33;100497.00;;;2.10;96.66
69772;BME280;57046;45.988;18.664;2023-12-20T06:51:58;100494.06;;;2.07;96.32
69772;BME280;57046;45.988;18.664;2023-12-20T06:54:24;100495.88;;;1.91;97.19
69772;BME280;57046;45.988;18.664;2023-12-20T06:56:49;100491.66;;;2.05;96.98
69772;BME280;57046;45.988;18.664;2023-12-20T06:59:14;100493.53;;;2.15;96.24
69772;BME280;57046;45.988;18.664;2023-12-20T07:01:39;100485.28;;;2.16;96.00
69772;BME280;57046;45.988;18.664;2023-12-20T07:04:05;100475.94;;;2.09;96.48
69772;BME280;57046;45.988;18.664;2023-12-20T07:06:30;100474.84;;;2.04;96.39
69772;BME280;57046;45.988;18.664;2023-12-20T07:08:55;100480.47;;;2.08;96.44
69772;BME280;57046;45.988;18.664;2023-12-20T07:11:21;100475.44;;;2.22;96.08
69772;BME280;57046;45.988;18.664;2023-12-20T07:13:46;100475.72;;;2.20;95.46
69772;BME280;57046;45.988;18.664;2023-12-20T07:16:11;100477.25;;;1.96;95.86
69772;BME280;57046;45.988;18.664;2023-12-20T07:18:37;100468.94;;;1.87;97.12
69772;BME280;57046;45.988;18.664;2023-12-20T07:21:02;100466.00;;;1.84;97.18
69772;BME280;57046;45.988;18.664;2023-12-20T07:23:28;100463.13;;;1.90;97.54
69772;BME280;57046;45.988;18.664;2023-12-20T07:25:53;100471.41;;;1.94;97.00
69772;BME280;57046;45.988;18.664;2023-12-20T07:28:19;100473.22;;;1.88;96.53
69772;BME280;57046;45.988;18.664;2023-12-20T07:30:44;100471.13;;;1.95;96.83
69772;BME280;57046;45.988;18.664;2023-12-20T07:33:09;100475.59;;;1.80;97.68
69772;BME280;57046;45.988;18.664;2023-12-20T07:35:34;100473.75;;;1.80;97.91
69772;BME280;57046;45.988;18.664;2023-12-20T07:38:00;100475.59;;;1.80;98.22
69772;BME280;57046;45.988;18.664;2023-12-20T07:40:25;100489.41;;;1.72;98.33
69772;BME280;57046;45.988;18.664;2023-12-20T07:42:50;100500.63;;;1.84;98.39
69772;BME280;57046;45.988;18.664;2023-12-20T07:45:16;100486.28;;;1.90;98.02
69772;BME280;57046;45.988;18.664;2023-12-20T07:47:41;100486.56;;;1.98;97.73
69772;BME280;57046;45.988;18.664;2023-12-20T07:50:06;100489.28;;;2.03;97.42
69772;BME280;57046;45.988;18.664;2023-12-20T07:52:32;100491.97;;;2.14;96.99
69772;BME280;57046;45.988;18.664;2023-12-20T07:54:57;100492.47;;;2.05;96.77
69772;BME280;57046;45.988;18.664;2023-12-20T07:57:23;100487.13;;;2.00;96.47
69772;BME280;57046;45.988;18.664;2023-12-20T07:59:49;100482.00;;;1.84;96.98
69772;BME280;57046;45.988;18.664;2023-12-20T08:02:14;100486.56;;;1.98;96.98
69772;BME280;57046;45.988;18.664;2023-12-20T08:04:39;100476.44;;;1.95;96.73
69772;BME280;57046;45.988;18.664;2023-12-20T08:07:05;100471.63;;;1.92;96.43
69772;BME280;57046;45.988;18.664;2023-12-20T08:09:30;100468.94;;;1.87;97.13
69772;BME280;57046;45.988;18.664;2023-12-20T08:11:55;100472.19;;;2.04;97.03
69772;BME280;57046;45.988;18.664;2023-12-20T08:14:21;100469.81;;;2.03;96.74
69772;BME280;57046;45.988;18.664;2023-12-20T08:16:46;100475.94;;;2.03;96.31
69772;BME280;57046;45.988;18.664;2023-12-20T08:19:11;100486.28;;;1.90;96.94
69772;BME280;57046;45.988;18.664;2023-12-20T08:21:37;100488.69;;;1.86;97.29
69772;BME280;57046;45.988;18.664;2023-12-20T08:24:02;100488.66;;;1.76;97.62
69772;BME280;57046;45.988;18.664;2023-12-20T08:26:27;100491.56;;;1.70;98.12
69772;BME280;57046;45.988;18.664;2023-12-20T08:28:53;100486.75;;;1.67;98.41
69772;BME280;57046;45.988;18.664;2023-12-20T08:31:18;100487.56;;;1.72;98.64
69772;BME280;57046;45.988;18.664;2023-12-20T08:33:44;100488.13;;;1.79;98.06
69772;BME280;57046;45.988;18.664;2023-12-20T08:36:10;100491.31;;;1.81;97.98
69772;BME280;57046;45.988;18.664;2023-12-20T08:38:36;100500.38;;;1.80;98.43
69772;BME280;57046;45.988;18.664;2023-12-20T08:41:01;100481.47;;;1.77;98.68
69772;BME280;57046;45.988;18.664;2023-12-20T08:43:27;100478.56;;;1.83;98.61
69772;BME280;57046;45.988;18.664;2023-12-20T08:45:52;100487.38;;;1.94;98.52
69772;BME280;57046;45.988;18.664;2023-12-20T08:48:17;100480.41;;;1.83;98.58
69772;BME280;57046;45.988;18.664;2023-12-20T08:50:43;100477.19;;;1.76;99.22
69772;BME280;57046;45.988;18.664;2023-12-20T08:53:08;100483.00;;;1.63;99.90
69772;BME280;57046;45.988;18.664;2023-12-20T08:55:33;100485.47;;;1.84;99.74
69772;BME280;57046;45.988;18.664;2023-12-20T08:57:59;100486.00;;;1.91;99.75
69772;BME280;57046;45.988;18.664;2023-12-20T09:00:24;100480.66;;;1.76;99.71
69772;BME280;57046;45.988;18.664;2023-12-20T09:02:50;100488.94;;;1.80;99.96
69772;BME280;57046;45.988;18.664;2023-12-20T09:05:15;100481.25;;;1.93;99.90
69772;BME280;57046;45.988;18.664;2023-12-20T09:07:40;100480.75;;;2.07;99.67
69772;BME280;57046;45.988;18.664;2023-12-20T09:10:06;100485.00;;;2.08;99.52
69772;BME280;57046;45.988;18.664;2023-12-20T09:12:31;100474.34;;;2.13;99.42
69772;BME280;57046;45.988;18.664;2023-12-20T09:14:57;100463.41;;;2.09;99.25
69772;BME280;57046;45.988;18.664;2023-12-20T09:17:22;100480.97;;;1.95;99.80
69772;BME280;57046;45.988;18.664;2023-12-20T09:19:47;100463.41;;;1.94;100.00
69772;BME280;57046;45.988;18.664;2023-12-20T09:22:13;100457.81;;;2.05;100.00
69772;BME280;57046;45.988;18.664;2023-12-20T09:24:38;100472.25;;;2.20;99.61
69772;BME280;57046;45.988;18.664;2023-12-20T09:27:03;100470.38;;;2.45;99.38
69772;BME280;57046;45.988;18.664;2023-12-20T09:29:29;100470.13;;;2.57;98.84
69772;BME280;57046;45.988;18.664;2023-12-20T09:31:54;100479.22;;;2.61;98.01
69772;BME280;57046;45.988;18.664;2023-12-20T09:34:20;100472.28;;;2.60;98.24
69772;BME280;57046;45.988;18.664;2023-12-20T09:36:45;100473.88;;;2.76;97.34
69772;BME280;57046;45.988;18.664;2023-12-20T09:39:11;100467.47;;;2.52;97.18
69772;BME280;57046;45.988;18.664;2023-12-20T09:41:38;100430.66;;;2.49;97.20
69772;BME280;57046;45.988;18.664;2023-12-20T09:44:08;100453.06;;;2.53;97.25
69772;BME280;57046;45.988;18.664;2023-12-20T09:46:39;100446.94;;;2.68;96.84
69772;BME280;57046;45.988;18.664;2023-12-20T09:49:06;100432.28;;;2.55;97.59
69772;BME280;57046;45.988;18.664;2023-12-20T09:51:53;100428.00;;;2.59;97.89
69772;BME280;57046;45.988;18.664;2023-12-20T09:54:37;100448.00;;;2.72;97.86
69772;BME280;57046;45.988;18.664;2023-12-20T09:57:23;100450.38;;;2.88;98.01
69772;BME280;57046;45.988;18.664;2023-12-20T10:00:09;100450.91;;;2.90;97.59
69772;BME280;57046;45.988;18.664;2023-12-20T10:05:42;100446.41;;;2.71;97.69
69772;BME280;57046;45.988;18.664;2023-12-20T10:08:28;100441.81;;;2.96;98.29
69772;BME280;57046;45.988;18.664;2023-12-20T10:11:14;100432.19;;;3.16;97.68
69772;BME280;57046;45.988;18.664;2023-12-20T10:13:40;100433.44;;;3.38;97.36
69772;BME280;57046;45.988;18.664;2023-12-20T10:16:06;100439.25;;;3.55;97.09
69772;BME280;57046;45.988;18.664;2023-12-20T10:18:32;100433.41;;;3.53;97.27
69772;BME280;57046;45.988;18.664;2023-12-20T10:20:57;100433.34;;;3.58;96.90
69772;BME280;57046;45.988;18.664;2023-12-20T10:23:22;100436.31;;;3.52;96.73
69772;BME280;57046;45.988;18.664;2023-12-20T10:26:00;100435.25;;;3.53;96.00
69772;BME280;57046;45.988;18.664;2023-12-20T10:28:26;100437.13;;;3.52;97.39
69772;BME280;57046;45.988;18.664;2023-12-20T10:30:51;100429.78;;;3.78;96.37
69772;BME280;57046;45.988;18.664;2023-12-20T10:33:27;100431.94;;;3.76;96.46
69772;BME280;57046;45.988;18.664;2023-12-20T10:35:53;100447.44;;;3.79;97.29
69772;BME280;57046;45.988;18.664;2023-12-20T10:38:18;100440.41;;;3.93;96.31
69772;BME280;57046;45.988;18.664;2023-12-20T10:40:45;100443.59;;;3.95;96.56
69772;BME280;57046;45.988;18.664;2023-12-20T10:43:11;100444.25;;;3.77;96.22
69772;BME280;57046;45.988;18.664;2023-12-20T10:45:37;100442.81;;;3.90;96.19
69772;BME280;57046;45.988;18.664;2023-12-20T10:48:03;100439.22;;;4.15;96.11
69772;BME280;57046;45.988;18.664;2023-12-20T10:50:30;100436.84;;;4.08;96.15
69772;BME280;57046;45.988;18.664;2023-12-20T10:52:56;100431.88;;;4.30;95.62
69772;BME280;57046;45.988;18.664;2023-12-20T10:55:25;100434.78;;;4.34;95.51
69772;BME280;57046;45.988;18.664;2023-12-20T10:57:51;100432.31;;;4.42;94.74
69772;BME280;57046;45.988;18.664;2023-12-20T11:00:18;100425.00;;;4.53;94.31
69772;BME280;57046;45.988;18.664;2023-12-20T11:02:44;100418.47;;;4.64;93.92
69772;BME280;57046;45.988;18.664;2023-12-20T11:05:49;100406.88;;;4.74;93.69
69772;BME280;57046;45.988;18.664;2023-12-20T11:08:38;100407.59;;;4.84;93.97
69772;BME280;57046;45.988;18.664;2023-12-20T11:11:12;100397.31;;;4.96;93.26
69772;BME280;57046;45.988;18.664;2023-12-20T11:14:03;100407.03;;;4.87;93.17
69772;BME280;57046;45.988;18.664;2023-12-20T11:16:33;100415.94;;;5.06;91.19
69772;BME280;57046;45.988;18.664;2023-12-20T11:19:05;100418.38;;;5.03;91.88
69772;BME280;57046;45.988;18.664;2023-12-20T11:21:30;100420.44;;;5.11;91.44
69772;BME280;57046;45.988;18.664;2023-12-20T11:23:55;100417.34;;;4.99;90.74
69772;BME280;57046;45.988;18.664;2023-12-20T11:26:28;100415.81;;;4.93;91.74
69772;BME280;57046;45.988;18.664;2023-12-20T11:28:53;100412.19;;;4.79;93.48
69772;BME280;57046;45.988;18.664;2023-12-20T11:31:19;100416.78;;;4.73;93.39
69772;BME280;57046;45.988;18.664;2023-12-20T11:33:44;100421.44;;;4.91;94.11
69772;BME280;57046;45.988;18.664;2023-12-20T11:36:13;100401.91;;;4.91;94.05
69772;BME280;57046;45.988;18.664;2023-12-20T11:38:53;100418.75;;;5.20;93.50
69772;BME280;57046;45.988;18.664;2023-12-20T11:41:22;100413.31;;;5.25;93.65
69772;BME280;57046;45.988;18.664;2023-12-20T11:43:47;100413.66;;;5.42;93.37
69772;BME280;57046;45.988;18.664;2023-12-20T11:46:13;100409.31;;;5.46;93.25
69772;BME280;57046;45.988;18.664;2023-12-20T11:48:38;100403.25;;;5.59;92.97
69772;BME280;57046;45.988;18.664;2023-12-20T11:51:13;100404.06;;;5.60;92.19
69772;BME280;57046;45.988;18.664;2023-12-20T11:53:41;100407.31;;;5.57;91.68
69772;BME280;57046;45.988;18.664;2023-12-20T11:56:07;100398.75;;;5.55;91.96
69772;BME280;57046;45.988;18.664;2023-12-20T11:58:33;100399.31;;;5.52;91.10
69772;BME280;57046;45.988;18.664;2023-12-20T12:00:59;100396.84;;;5.55;92.14
69772;BME280;57046;45.988;18.664;2023-12-20T12:03:24;100400.28;;;5.61;92.18
69772;BME280;57046;45.988;18.664;2023-12-20T12:05:49;100398.38;;;5.61;91.57
69772;BME280;57046;45.988;18.664;2023-12-20T12:08:16;100394.25;;;5.50;91.32
69772;BME280;57046;45.988;18.664;2023-12-20T12:10:41;100384.16;;;5.42;91.60
69772;BME280;57046;45.988;18.664;2023-12-20T12:13:07;100378.66;;;5.34;91.99
69772;BME280;57046;45.988;18.664;2023-12-20T12:15:32;100370.97;;;5.27;91.71
69772;BME280;57046;45.988;18.664;2023-12-20T12:17:57;100370.75;;;5.24;91.14
69772;BME280;57046;45.988;18.664;2023-12-20T12:20:23;100368.69;;;5.16;91.71
69772;BME280;57046;45.988;18.664;2023-12-20T12:23:15;100364.81;;;5.27;91.81
69772;BME280;57046;45.988;18.664;2023-12-20T12:25:47;100361.50;;;5.35;91.81
69772;BME280;57046;45.988;18.664;2023-12-20T12:28:12;100357.59;;;5.46;92.15
69772;BME280;57046;45.988;18.664;2023-12-20T12:30:38;100352.41;;;5.54;90.60
69772;BME280;57046;45.988;18.664;2023-12-20T12:33:03;100349.50;;;5.51;91.58
69772;BME280;57046;45.988;18.664;2023-12-20T12:35:29;100357.09;;;5.44;91.40
69772;BME280;57046;45.988;18.664;2023-12-20T12:37:54;100354.56;;;5.52;92.15
69772;BME280;57046;45.988;18.664;2023-12-20T12:40:19;100356.38;;;5.57;92.47
69772;BME280;57046;45.988;18.664;2023-12-20T12:42:45;100356.59;;;5.60;92.52
69772;BME280;57046;45.988;18.664;2023-12-20T12:45:11;100364.06;;;5.63;92.42
69772;BME280;57046;45.988;18.664;2023-12-20T12:47:36;100358.41;;;5.65;92.24
69772;BME280;57046;45.988;18.664;2023-12-20T12:50:02;100357.25;;;5.71;91.69